Time;durP1;ratioP1;P1;durP2;ratioP2;P2;SDS_P1;SDS_P2;PMS_P1;PMS_P2;Temp;Humidity;BMP_temperature;BMP_pressure;BME280_temperature;BME280_humidity;BME280_pressure;Samples;Min_cycle;Max_cycle;Signal;HPM_P1;HPM_P2
2022/10/27 00:01:37;;;;;;;15.32;4.13;;;13.50;99.90;;;;;;5025327;28;20033;-83
2022/10/27 00:04:03;;;;;;;5.93;4.03;;;13.40;99.90;;;;;;5043505;28;20095;-83
2022/10/27 00:06:28;;;;;;;6.70;3.55;;;13.40;99.90;;;;;;5026109;28;20021;-82
2022/10/27 00:08:54;;;;;;;16.05;4.93;;;13.30;99.90;;;;;;5025750;28;20052;-83
2022/10/27 00:11:19;;;;;;;8.50;4.00;;;13.40;99.90;;;;;;5026661;28;20064;-83
2022/10/27 00:13:45;;;;;;;9.35;4.22;;;13.30;99.90;;;;;;5026385;28;20037;-83
2022/10/27 00:16:14;;;;;;;13.07;5.85;;;13.30;99.90;;;;;;5025158;28;20028;-81
2022/10/27 00:18:41;;;;;;;12.50;5.03;;;13.40;99.90;;;;;;5021493;28;20029;-81
2022/10/27 00:21:13;;;;;;;14.30;5.00;;;13.40;99.90;;;;;;5029893;28;20044;-81
2022/10/27 00:23:40;;;;;;;10.27;4.72;;;13.40;99.90;;;;;;5036043;28;20386;-81
2022/10/27 00:26:09;;;;;;;14.55;5.40;;;13.50;99.90;;;;;;5058844;28;20106;-81
2022/10/27 00:28:35;;;;;;;9.25;5.28;;;13.50;99.90;;;;;;5041621;28;20504;-81
2022/10/27 00:31:07;;;;;;;13.68;5.82;;;13.50;99.90;;;;;;5060240;28;20031;-81
2022/10/27 00:33:35;;;;;;;6.97;5.00;;;13.50;99.90;;;;;;5041675;28;20478;-81
2022/10/27 00:36:13;;;;;;;10.57;4.65;;;13.50;99.90;;;;;;5042214;28;20492;-80
2022/10/27 00:38:47;;;;;;;12.52;5.45;;;13.50;99.90;;;;;;5041956;28;20025;-81
2022/10/27 00:41:37;;;;;;;12.63;4.60;;;13.50;99.90;;;;;;5059286;28;20045;-81
2022/10/27 00:44:28;;;;;;;10.27;4.82;;;13.50;99.90;;;;;;5039877;28;20025;-81
2022/10/27 00:46:58;;;;;;;9.52;4.30;;;13.50;99.90;;;;;;5028997;28;20033;-81
2022/10/27 00:49:29;;;;;;;11.35;5.18;;;13.50;99.90;;;;;;5059664;28;20040;-81
2022/10/27 00:52:01;;;;;;;8.98;5.15;;;13.40;99.90;;;;;;5027150;28;20034;-81
2022/10/27 00:54:30;;;;;;;12.32;4.10;;;13.50;99.90;;;;;;4998801;28;20108;-80
2022/10/27 00:56:56;;;;;;;8.60;4.50;;;13.40;99.90;;;;;;4998883;28;20172;-80
2022/10/27 00:59:26;;;;;;;16.08;5.60;;;13.50;99.90;;;;;;5018021;28;20108;-80
2022/10/27 01:01:52;;;;;;;9.73;5.13;;;13.50;99.90;;;;;;5020215;28;20029;-81
2022/10/27 01:04:33;;;;;;;10.00;4.95;;;13.50;99.90;;;;;;5003367;28;20033;-81
2022/10/27 01:07:01;;;;;;;11.25;5.07;;;13.50;99.90;;;;;;5021115;28;20254;-80
2022/10/27 01:09:27;;;;;;;12.75;4.65;;;13.60;99.90;;;;;;5003202;28;20030;-81
2022/10/27 01:11:53;;;;;;;12.15;4.88;;;13.60;99.90;;;;;;5004508;28;20529;-81
2022/10/27 01:14:18;;;;;;;13.45;4.93;;;13.60;99.90;;;;;;5021612;28;20098;-81
2022/10/27 01:16:50;;;;;;;11.02;4.22;;;13.60;99.90;;;;;;5002042;28;20029;-81
2022/10/27 01:20:13;;;;;;;7.05;4.10;;;13.60;99.90;;;;;;5002376;28;20030;-81
2022/10/27 01:22:54;;;;;;;11.88;4.50;;;13.60;99.90;;;;;;4942080;29;20027;-81
2022/10/27 01:25:22;;;;;;;11.57;4.10;;;13.60;99.90;;;;;;4958055;29;20060;-81
2022/10/27 01:28:25;;;;;;;11.40;4.03;;;13.50;99.90;;;;;;4991989;28;20487;-80
2022/10/27 01:31:08;;;;;;;11.65;4.88;;;13.60;99.90;;;;;;5016768;28;20092;-81
2022/10/27 01:33:43;;;;;;;6.35;4.38;;;13.60;99.90;;;;;;5015454;28;20021;-81
2022/10/27 01:36:24;;;;;;;13.32;4.90;;;13.60;99.90;;;;;;5017870;28;20064;-81
2022/10/27 01:39:05;;;;;;;9.60;4.60;;;13.50;99.90;;;;;;5017505;28;20491;-82
2022/10/27 01:41:40;;;;;;;9.40;3.70;;;13.60;99.90;;;;;;5017833;28;20026;-81
2022/10/27 01:44:18;;;;;;;9.45;4.38;;;13.60;99.90;;;;;;5027304;28;20034;-83
2022/10/27 01:46:47;;;;;;;9.68;4.40;;;13.60;99.90;;;;;;5029056;28;20029;-83
2022/10/27 01:49:13;;;;;;;8.68;3.78;;;13.60;99.90;;;;;;5026485;28;20030;-83
2022/10/27 01:51:38;;;;;;;14.68;4.90;;;13.60;99.90;;;;;;5034376;28;20049;-83
2022/10/27 01:54:05;;;;;;;13.45;5.43;;;13.60;99.90;;;;;;5010407;28;20076;-84
2022/10/27 01:56:53;;;;;;;12.07;4.43;;;13.60;99.90;;;;;;5007848;28;20017;-83
2022/10/27 01:59:57;;;;;;;10.30;3.88;;;13.60;99.90;;;;;;5007932;28;20098;-84
2022/10/27 02:02:47;;;;;;;10.68;5.13;;;13.60;99.90;;;;;;5006028;28;20022;-83
2022/10/27 02:05:33;;;;;;;10.52;4.47;;;13.60;99.90;;;;;;5002186;28;20026;-85
2022/10/27 02:08:13;;;;;;;13.05;4.45;;;13.60;99.90;;;;;;5019047;28;20052;-82
2022/10/27 02:10:57;;;;;;;12.80;4.68;;;13.60;99.90;;;;;;5000585;28;20033;-82
2022/10/27 02:13:24;;;;;;;9.23;4.40;;;13.60;99.90;;;;;;5000403;28;20116;-82
2022/10/27 02:15:54;;;;;;;9.05;4.57;;;13.50;99.90;;;;;;5018460;28;20061;-82
2022/10/27 02:18:37;;;;;;;11.65;4.38;;;13.50;99.90;;;;;;5000628;28;20041;-82
2022/10/27 02:21:05;;;;;;;8.95;4.03;;;13.50;99.90;;;;;;5037138;28;20039;-81
2022/10/27 02:23:34;;;;;;;9.88;4.13;;;13.50;99.90;;;;;;5035995;28;20093;-82
2022/10/27 02:26:13;;;;;;;9.88;4.22;;;13.50;99.90;;;;;;5062661;28;20060;-82
2022/10/27 02:29:01;;;;;;;9.98;4.82;;;13.50;99.90;;;;;;5045011;28;20052;-82
2022/10/27 02:31:35;;;;;;;10.43;4.90;;;13.50;99.90;;;;;;5032339;28;20061;-80
2022/10/27 02:34:04;;;;;;;13.15;3.55;;;13.60;99.90;;;;;;5039453;28;20414;-80
2022/10/27 02:36:30;;;;;;;12.43;4.45;;;13.60;99.90;;;;;;5056035;28;20410;-80
2022/10/27 02:38:58;;;;;;;11.55;4.93;;;13.70;99.90;;;;;;5056038;28;20025;-80
2022/10/27 02:41:24;;;;;;;5.85;4.00;;;13.60;99.90;;;;;;5037678;28;20078;-80
2022/10/27 02:43:49;;;;;;;10.60;4.40;;;13.60;99.90;;;;;;5039340;28;20394;-81
2022/10/27 02:46:18;;;;;;;10.15;4.25;;;13.60;99.90;;;;;;5042624;28;20476;-81
2022/10/27 02:48:44;;;;;;;6.82;3.78;;;13.60;99.90;;;;;;5043647;28;20112;-80
2022/10/27 02:51:10;;;;;;;13.30;4.22;;;13.70;99.90;;;;;;5038595;28;20128;-80
2022/10/27 02:53:36;;;;;;;10.50;4.03;;;13.70;99.90;;;;;;5034112;28;20052;-80
2022/10/27 02:56:03;;;;;;;7.80;3.75;;;13.70;99.90;;;;;;5039349;28;20028;-80
2022/10/27 02:58:28;;;;;;;11.27;4.32;;;13.80;99.90;;;;;;5039938;28;20107;-79
2022/10/27 03:00:55;;;;;;;6.93;3.60;;;13.70;99.90;;;;;;5055376;28;20652;-80
2022/10/27 03:03:22;;;;;;;7.90;3.88;;;13.70;99.90;;;;;;5056542;28;20104;-79
2022/10/27 03:05:48;;;;;;;10.00;3.65;;;13.80;99.90;;;;;;5040375;28;20032;-78
2022/10/27 03:08:14;;;;;;;8.60;4.10;;;13.70;99.90;;;;;;5039841;28;20488;-79
2022/10/27 03:10:40;;;;;;;7.25;4.18;;;13.70;99.90;;;;;;5057732;28;20036;-79
2022/10/27 03:13:05;;;;;;;7.68;3.47;;;13.70;99.90;;;;;;5040226;28;20029;-81
2022/10/27 03:15:31;;;;;;;6.50;3.65;;;13.70;99.90;;;;;;5060349;28;20025;-82
2022/10/27 03:17:57;;;;;;;8.30;3.40;;;13.60;99.90;;;;;;5041972;28;20063;-82
2022/10/27 03:20:22;;;;;;;6.18;3.70;;;13.60;99.90;;;;;;5041281;28;20017;-82
2022/10/27 03:22:48;;;;;;;10.27;3.65;;;13.60;99.90;;;;;;5027229;28;20047;-83
2022/10/27 03:25:16;;;;;;;12.38;3.90;;;13.60;99.90;;;;;;5042807;28;20026;-82
2022/10/27 03:27:43;;;;;;;5.43;3.28;;;13.70;99.90;;;;;;5044128;28;20025;-80
2022/10/27 03:30:11;;;;;;;9.65;3.70;;;13.70;99.90;;;;;;5025392;28;20026;-80
2022/10/27 03:32:37;;;;;;;11.68;4.13;;;13.70;99.90;;;;;;5025736;28;20030;-80
2022/10/27 03:35:03;;;;;;;11.80;3.78;;;13.80;99.90;;;;;;5027292;28;20022;-81
2022/10/27 03:37:32;;;;;;;5.85;3.30;;;13.80;99.90;;;;;;5027638;28;20026;-81
2022/10/27 03:40:00;;;;;;;7.88;3.85;;;13.80;99.90;;;;;;5027493;28;20017;-81
2022/10/27 03:42:29;;;;;;;8.43;3.38;;;13.80;99.90;;;;;;5025442;28;20037;-81
2022/10/27 03:44:55;;;;;;;9.30;3.45;;;13.80;99.90;;;;;;5024672;28;20021;-81
2022/10/27 03:47:23;;;;;;;8.93;3.50;;;13.80;99.90;;;;;;5025322;28;20116;-81
2022/10/27 03:49:49;;;;;;;8.05;3.60;;;13.70;99.90;;;;;;5024246;28;20048;-83
2022/10/27 03:52:17;;;;;;;8.10;3.70;;;13.70;99.90;;;;;;5033239;28;20280;-81
2022/10/27 03:54:46;;;;;;;10.75;4.60;;;13.80;99.90;;;;;;5036347;28;20240;-79
2022/10/27 03:57:14;;;;;;;5.78;3.00;;;13.80;99.90;;;;;;5020113;28;20032;-81
2022/10/27 03:59:43;;;;;;;6.57;3.80;;;13.80;99.90;;;;;;5018193;28;20029;-80
2022/10/27 04:02:08;;;;;;;5.30;3.38;;;13.70;99.90;;;;;;5034878;28;20026;-81
2022/10/27 04:04:37;;;;;;;7.55;3.80;;;13.70;99.90;;;;;;5017829;28;20483;-81
2022/10/27 04:07:05;;;;;;;8.50;3.63;;;13.70;99.90;;;;;;5034352;28;20080;-80
2022/10/27 04:09:31;;;;;;;12.40;3.90;;;13.70;99.90;;;;;;5017081;28;20048;-81
2022/10/27 04:11:59;;;;;;;9.00;3.72;;;13.60;99.90;;;;;;5033651;28;20017;-81
2022/10/27 04:14:28;;;;;;;6.45;3.30;;;13.70;99.90;;;;;;5016478;28;20029;-83
2022/10/27 04:16:54;;;;;;;6.35;3.47;;;13.60;99.90;;;;;;5030454;28;20033;-81
2022/10/27 04:19:22;;;;;;;7.70;3.60;;;13.60;99.90;;;;;;5014085;28;20041;-82
2022/10/27 04:21:48;;;;;;;16.63;4.40;;;13.50;99.90;;;;;;5017874;28;20493;-81
2022/10/27 04:24:14;;;;;;;7.88;4.35;;;13.50;99.90;;;;;;5009314;28;20026;-81
2022/10/27 04:26:40;;;;;;;8.40;4.38;;;13.60;99.90;;;;;;5013676;28;20053;-81
2022/10/27 04:29:06;;;;;;;10.63;3.78;;;13.60;99.90;;;;;;5007239;28;20030;-83
2022/10/27 04:31:31;;;;;;;7.97;3.83;;;13.60;99.90;;;;;;5014571;28;20526;-83
2022/10/27 04:33:58;;;;;;;6.75;3.75;;;13.60;99.90;;;;;;5013854;28;20022;-83
2022/10/27 04:36:24;;;;;;;14.90;4.82;;;13.50;99.90;;;;;;5012888;28;20167;-82
2022/10/27 04:38:50;;;;;;;6.55;3.88;;;13.50;99.90;;;;;;5015629;28;20034;-82
2022/10/27 04:41:16;;;;;;;8.20;4.05;;;13.50;99.90;;;;;;5017744;28;20024;-82
2022/10/27 04:43:42;;;;;;;11.05;4.15;;;13.50;99.90;;;;;;5007180;28;20029;-83
2022/10/27 04:46:08;;;;;;;7.78;3.67;;;13.50;99.90;;;;;;5016469;28;20033;-81
2022/10/27 04:48:33;;;;;;;7.63;3.95;;;13.40;99.90;;;;;;5020821;28;20025;-81
2022/10/27 04:51:02;;;;;;;8.45;3.30;;;13.40;99.90;;;;;;5011308;28;20026;-81
2022/10/27 04:53:28;;;;;;;7.32;3.45;;;13.30;99.90;;;;;;5023963;28;20025;-81
2022/10/27 04:55:54;;;;;;;5.30;3.60;;;13.30;99.90;;;;;;5004694;28;20364;-80
2022/10/27 04:58:20;;;;;;;5.53;3.60;;;13.30;99.90;;;;;;5021139;28;20330;-80
2022/10/27 05:00:46;;;;;;;8.55;3.83;;;13.30;99.90;;;;;;5026435;28;20022;-80
2022/10/27 05:03:12;;;;;;;8.70;4.28;;;13.30;99.90;;;;;;5023054;28;20025;-79
2022/10/27 05:05:38;;;;;;;11.43;4.55;;;13.20;99.90;;;;;;5015818;28;20033;-79
2022/10/27 05:08:08;;;;;;;9.73;4.03;;;13.20;99.90;;;;;;5004324;28;20067;-79
2022/10/27 05:10:34;;;;;;;6.82;3.53;;;13.10;99.90;;;;;;5022737;28;20064;-80
2022/10/27 05:13:00;;;;;;;10.27;3.83;;;13.10;99.90;;;;;;5022191;28;20557;-80
2022/10/27 05:15:32;;;;;;;9.55;5.28;;;13.10;99.90;;;;;;5008074;28;20132;-80
2022/10/27 05:17:57;;;;;;;8.73;5.43;;;13.10;99.90;;;;;;5012715;28;20075;-80
2022/10/27 05:20:23;;;;;;;9.93;5.22;;;13.10;99.90;;;;;;5027583;28;20303;-80
2022/10/27 05:22:52;;;;;;;13.10;6.07;;;13.10;99.90;;;;;;5027046;28;20091;-80
2022/10/27 05:25:20;;;;;;;7.00;4.78;;;13.10;99.90;;;;;;5007651;28;20045;-80
2022/10/27 05:27:46;;;;;;;9.40;5.00;;;13.10;99.90;;;;;;5020757;28;20032;-80
2022/10/27 05:30:13;;;;;;;10.32;4.75;;;13.10;99.90;;;;;;5021477;28;20101;-80
2022/10/27 05:32:39;;;;;;;8.43;5.18;;;13.10;99.90;;;;;;5022050;28;20042;-81
2022/10/27 05:35:05;;;;;;;8.95;4.75;;;13.10;99.90;;;;;;5023478;28;20024;-81
2022/10/27 05:37:31;;;;;;;11.98;4.93;;;13.10;99.90;;;;;;5008373;28;20379;-81
2022/10/27 05:40:00;;;;;;;6.95;4.30;;;13.10;99.90;;;;;;5014026;28;20071;-80
2022/10/27 05:42:27;;;;;;;8.77;4.30;;;13.10;99.90;;;;;;4994175;28;20026;-80
2022/10/27 05:44:52;;;;;;;6.93;4.53;;;13.10;99.90;;;;;;5010254;28;20502;-79
2022/10/27 05:47:18;;;;;;;13.02;5.50;;;13.10;99.90;;;;;;5015115;28;20028;-79
2022/10/27 05:49:43;;;;;;;7.68;4.43;;;13.10;99.90;;;;;;5014679;28;20034;-79
2022/10/27 05:52:09;;;;;;;8.50;4.32;;;13.10;99.90;;;;;;5041877;28;20028;-79
2022/10/27 05:54:35;;;;;;;8.48;3.95;;;13.00;99.90;;;;;;5034579;28;20068;-79
2022/10/27 05:57:00;;;;;;;6.80;4.18;;;13.10;99.90;;;;;;5034541;28;20025;-79
2022/10/27 05:59:29;;;;;;;7.75;3.95;;;13.00;99.90;;;;;;5032945;28;20037;-79
2022/10/27 06:01:55;;;;;;;9.40;5.22;;;13.00;99.90;;;;;;5032729;28;20489;-80
2022/10/27 06:04:21;;;;;;;11.52;4.35;;;13.00;99.90;;;;;;5033519;28;20033;-79
2022/10/27 06:06:46;;;;;;;9.55;5.00;;;13.00;99.90;;;;;;5030990;28;20105;-79
2022/10/27 06:09:12;;;;;;;10.07;4.97;;;13.00;99.90;;;;;;5051256;28;20033;-81
2022/10/27 06:11:52;;;;;;;10.32;5.28;;;13.00;99.90;;;;;;5036239;28;20025;-79
2022/10/27 06:14:20;;;;;;;7.88;4.85;;;13.00;99.90;;;;;;5016103;28;20230;-79
2022/10/27 06:16:49;;;;;;;7.78;4.80;;;13.00;99.90;;;;;;5033317;28;20033;-79
2022/10/27 06:19:15;;;;;;;10.35;4.78;;;13.00;99.90;;;;;;5015118;28;20566;-79
2022/10/27 06:21:44;;;;;;;10.25;4.80;;;13.00;99.90;;;;;;5023634;28;20057;-81
2022/10/27 06:24:34;;;;;;;5.72;3.63;;;13.00;99.90;;;;;;5035941;28;20379;-81
2022/10/27 06:27:21;;;;;;;8.05;4.50;;;13.00;99.90;;;;;;5056687;28;20567;-82
2022/10/27 06:29:52;;;;;;;7.82;4.10;;;13.00;99.90;;;;;;5039525;28;20044;-83
2022/10/27 06:32:20;;;;;;;11.63;4.30;;;13.10;99.90;;;;;;5046815;28;20078;-83
2022/10/27 06:34:46;;;;;;;8.20;5.07;;;13.10;99.90;;;;;;5037002;28;20390;-85
2022/10/27 06:37:13;;;;;;;8.70;4.57;;;13.10;99.90;;;;;;5020160;28;20017;-84
2022/10/27 06:39:41;;;;;;;10.32;4.78;;;13.10;99.90;;;;;;5004320;28;20033;-84
2022/10/27 06:42:11;;;;;;;7.45;4.00;;;13.20;99.90;;;;;;5037495;28;20049;-84
2022/10/27 06:44:37;;;;;;;11.70;4.00;;;13.30;99.90;;;;;;5019550;28;20025;-82
2022/10/27 06:47:02;;;;;;;16.95;4.90;;;13.40;99.90;;;;;;5019065;28;20026;-82
2022/10/27 06:49:28;;;;;;;9.10;4.53;;;13.40;99.90;;;;;;5036516;28;20029;-82
2022/10/27 06:52:03;;;;;;;12.68;4.55;;;13.50;99.90;;;;;;5026305;28;20059;-82
2022/10/27 06:54:29;;;;;;;8.43;4.22;;;13.60;99.90;;;;;;4998678;28;20057;-82
2022/10/27 06:56:58;;;;;;;8.18;4.05;;;13.70;99.90;;;;;;5017041;28;20068;-82
2022/10/27 06:59:26;;;;;;;10.02;4.15;;;13.80;99.90;;;;;;4999351;28;20032;-82
2022/10/27 07:01:52;;;;;;;13.07;3.95;;;13.90;99.90;;;;;;5015514;28;20060;-82
2022/10/27 07:04:20;;;;;;;9.00;4.80;;;13.90;99.90;;;;;;5016060;28;20092;-82
2022/10/27 07:06:49;;;;;;;9.82;4.18;;;14.00;99.90;;;;;;5015131;28;20049;-80
2022/10/27 07:09:17;;;;;;;9.95;3.85;;;14.10;99.90;;;;;;5016910;28;20113;-80
2022/10/27 07:11:43;;;;;;;15.48;3.70;;;14.10;99.90;;;;;;5014364;28;20029;-80
2022/10/27 07:14:11;;;;;;;5.13;3.53;;;14.20;99.90;;;;;;5014831;28;20390;-81
2022/10/27 07:16:40;;;;;;;12.52;3.78;;;14.20;99.90;;;;;;5017789;28;20022;-84
2022/10/27 07:19:06;;;;;;;11.23;3.60;;;14.30;99.90;;;;;;5017225;28;20041;-81
2022/10/27 07:21:34;;;;;;;10.68;4.20;;;14.40;99.90;;;;;;5029403;28;20024;-81
2022/10/27 07:24:03;;;;;;;7.43;3.80;;;14.50;99.90;;;;;;5017141;28;20029;-81
2022/10/27 07:26:31;;;;;;;7.18;3.70;;;14.50;99.90;;;;;;5017108;28;20060;-80
2022/10/27 07:29:03;;;;;;;14.60;3.72;;;14.50;99.90;;;;;;5017434;28;20022;-80
2022/10/27 07:31:31;;;;;;;7.75;3.90;;;14.60;99.90;;;;;;5014951;28;20030;-81
2022/10/27 07:34:00;;;;;;;9.10;4.10;;;14.70;99.90;;;;;;5017816;28;20071;-81
2022/10/27 07:36:26;;;;;;;10.80;3.60;;;14.70;99.90;;;;;;5017639;28;20021;-81
2022/10/27 07:38:51;;;;;;;8.82;3.90;;;14.80;99.90;;;;;;5035377;28;20026;-79
2022/10/27 07:41:20;;;;;;;8.82;3.13;;;14.80;99.90;;;;;;5016796;28;20048;-79
2022/10/27 07:43:47;;;;;;;8.05;3.30;;;14.80;99.90;;;;;;5016805;28;20029;-80
2022/10/27 07:46:14;;;;;;;11.63;3.33;;;14.90;99.90;;;;;;5034815;28;20021;-80
2022/10/27 07:48:40;;;;;;;8.02;3.40;;;15.00;99.90;;;;;;5017054;28;20026;-79
2022/10/27 07:51:06;;;;;;;10.38;3.35;;;14.90;99.90;;;;;;5043125;28;20505;-83
2022/10/27 07:53:31;;;;;;;12.23;3.40;;;14.90;99.90;;;;;;5030961;28;20033;-80
2022/10/27 07:55:57;;;;;;;8.93;4.03;;;14.90;99.90;;;;;;5040226;28;20009;-80
2022/10/27 07:58:24;;;;;;;7.68;3.50;;;14.90;99.90;;;;;;5037320;28;20025;-80
2022/10/27 08:00:49;;;;;;;7.97;4.13;;;15.00;99.90;;;;;;5039738;28;20063;-82
2022/10/27 08:03:20;;;;;;;7.55;3.08;;;15.10;99.90;;;;;;5054906;28;20552;-80
2022/10/27 08:05:54;;;;;;;9.55;3.22;;;15.30;99.90;;;;;;5055184;28;20056;-81
2022/10/27 08:08:20;;;;;;;9.80;3.20;;;15.30;99.90;;;;;;5019590;28;20033;-81
2022/10/27 08:10:49;;;;;;;8.00;3.45;;;15.40;99.90;;;;;;5057218;28;20040;-80
2022/10/27 08:13:15;;;;;;;7.15;3.03;;;15.50;99.90;;;;;;5036093;28;20025;-80
2022/10/27 08:15:41;;;;;;;9.30;3.38;;;15.60;99.90;;;;;;5035493;28;20034;-80
2022/10/27 08:18:08;;;;;;;7.53;3.55;;;15.70;99.90;;;;;;5035759;28;20123;-80
2022/10/27 08:20:37;;;;;;;12.02;3.42;;;15.80;99.90;;;;;;5051906;28;20029;-79
2022/10/27 08:23:05;;;;;;;7.65;3.40;;;16.00;99.90;;;;;;5026640;28;20068;-80
2022/10/27 08:25:32;;;;;;;9.90;3.50;;;16.20;99.90;;;;;;5014847;28;20037;-79
2022/10/27 08:27:58;;;;;;;10.00;3.08;;;16.30;99.90;;;;;;5033749;28;20029;-80
2022/10/27 08:30:26;;;;;;;4.70;2.75;;;16.40;99.90;;;;;;5033748;28;20021;-80
2022/10/27 08:32:56;;;;;;;16.00;3.15;;;16.50;99.90;;;;;;5015379;28;20556;-80
2022/10/27 08:35:21;;;;;;;9.50;3.35;;;16.70;99.90;;;;;;5016150;28;20048;-80
2022/10/27 08:37:47;;;;;;;5.75;3.00;;;16.70;99.90;;;;;;5034870;28;20482;-80
2022/10/27 08:40:13;;;;;;;9.23;4.15;;;16.70;99.90;;;;;;5015598;28;20057;-80
2022/10/27 08:43:18;;;;;;;5.78;3.03;;;16.70;99.90;;;;;;5031565;28;20021;-80
2022/10/27 08:45:53;;;;;;;7.43;2.75;;;16.90;99.90;;;;;;5015361;28;20025;-80
2022/10/27 08:48:28;;;;;;;8.57;3.05;;;17.00;99.90;;;;;;5014858;28;20418;-79
2022/10/27 08:50:54;;;;;;;8.80;3.05;;;17.00;99.90;;;;;;5022867;28;20021;-80
2022/10/27 08:53:32;;;;;;;10.63;3.10;;;17.10;99.90;;;;;;5026152;28;20035;-80
2022/10/27 08:56:10;;;;;;;7.97;2.90;;;17.10;99.90;;;;;;5035203;28;20025;-80
2022/10/27 08:58:41;;;;;;;5.95;2.80;;;17.30;99.90;;;;;;5052498;28;20331;-80
2022/10/27 09:01:20;;;;;;;4.88;2.78;;;17.40;99.90;;;;;;5034572;28;20017;-80
2022/10/27 09:04:03;;;;;;;3.78;2.92;;;17.50;99.90;;;;;;5052616;28;20025;-80
2022/10/27 09:06:30;;;;;;;8.77;3.42;;;17.70;99.90;;;;;;5052249;28;20025;-79
2022/10/27 09:09:12;;;;;;;7.72;2.60;;;17.80;99.90;;;;;;5034226;28;20043;-79
2022/10/27 09:11:41;;;;;;;9.82;2.40;;;17.90;99.90;;;;;;5033349;28;20032;-79
2022/10/27 09:14:34;;;;;;;5.45;2.55;;;18.10;99.90;;;;;;5032788;28;20083;-79
2022/10/27 09:17:20;;;;;;;7.47;2.45;;;18.70;99.90;;;;;;5050179;28;20037;-79
2022/10/27 09:20:14;;;;;;;4.50;2.38;;;20.50;99.90;;;;;;5032196;28;20053;-79
2022/10/27 09:22:41;;;;;;;7.82;2.75;;;21.80;99.90;;;;;;5016454;28;20029;-80
2022/10/27 09:25:22;;;;;;;4.43;2.03;;;23.10;99.90;;;;;;4997423;28;20557;-80
2022/10/27 09:27:52;;;;;;;7.80;2.30;;;23.50;99.50;;;;;;5011608;28;20029;-80
2022/10/27 09:30:21;;;;;;;4.85;2.22;;;24.30;97.90;;;;;;5013014;28;20704;-79
2022/10/27 09:32:53;;;;;;;5.57;2.33;;;25.10;95.60;;;;;;5012145;28;20029;-78
2022/10/27 09:35:30;;;;;;;2.40;2.00;;;25.80;94.50;;;;;;5030152;28;20037;-78
2022/10/27 09:37:59;;;;;;;5.82;2.65;;;26.10;93.70;;;;;;5012965;28;20138;-78
2022/10/27 09:40:32;;;;;;;5.75;2.38;;;26.00;93.40;;;;;;5012616;28;20032;-78
2022/10/27 09:43:01;;;;;;;5.25;1.80;;;25.90;92.20;;;;;;5011745;28;20505;-78
2022/10/27 09:45:27;;;;;;;7.60;2.33;;;25.60;92.60;;;;;;5012365;28;20052;-78
2022/10/27 09:48:01;;;;;;;3.45;1.70;;;25.80;91.70;;;;;;5012601;28;20112;-78
2022/10/27 09:51:13;;;;;;;5.55;2.40;;;25.80;92.10;;;;;;5034667;28;20021;-78
2022/10/27 09:53:51;;;;;;;7.80;2.63;;;25.70;91.70;;;;;;4958015;28;20094;-77
2022/10/27 09:56:28;;;;;;;5.18;2.40;;;26.00;91.30;;;;;;4972898;28;20023;-78
2022/10/27 09:59:05;;;;;;;7.18;1.77;;;27.00;90.30;;;;;;4998745;28;20083;-79
2022/10/27 10:01:55;;;;;;;3.75;1.88;;;27.50;88.90;;;;;;5016884;28;20382;-79
2022/10/27 10:04:24;;;;;;;4.03;1.70;;;26.50;87.90;;;;;;5016949;28;20033;-79
2022/10/27 10:07:02;;;;;;;4.65;1.73;;;27.50;88.50;;;;;;5035253;28;20465;-79
2022/10/27 10:09:29;;;;;;;6.68;1.38;;;27.80;84.00;;;;;;5017138;28;20494;-79
2022/10/27 10:12:24;;;;;;;4.72;1.63;;;28.90;82.30;;;;;;5016642;28;20038;-80
2022/10/27 10:15:06;;;;;;;3.38;1.40;;;30.10;78.80;;;;;;5031695;28;20046;-80
2022/10/27 10:17:35;;;;;;;3.90;1.60;;;29.70;77.60;;;;;;5005155;28;20057;-79
2022/10/27 10:20:01;;;;;;;5.90;1.70;;;29.80;78.00;;;;;;5004278;28;20021;-79
2022/10/27 10:22:32;;;;;;;4.20;1.60;;;30.50;75.40;;;;;;5013917;28;20028;-80
2022/10/27 10:25:21;;;;;;;6.05;1.75;;;31.20;74.80;;;;;;5017496;28;20022;-80
2022/10/27 10:27:55;;;;;;;4.38;1.67;;;31.30;70.20;;;;;;5011348;28;20049;-80
2022/10/27 10:30:21;;;;;;;4.90;1.40;;;31.00;73.00;;;;;;5013534;28;20029;-80
2022/10/27 10:32:48;;;;;;;4.63;1.60;;;32.20;69.10;;;;;;5023871;28;20021;-80
2022/10/27 10:38:55;;;;;;;4.60;1.60;;;32.30;67.70;;;;;;5013894;28;20461;-81
2022/10/27 10:41:47;;;;;;;4.28;1.35;;;31.30;69.60;;;;;;4995781;28;20041;-81
2022/10/27 10:44:15;;;;;;;5.47;1.63;;;31.70;67.00;;;;;;4994314;28;20020;-81
2022/10/27 10:47:20;;;;;;;2.05;1.40;;;30.50;68.70;;;;;;4997397;28;20025;-81
2022/10/27 10:50:01;;;;;;;8.80;1.80;;;30.00;70.20;;;;;;4981075;28;20034;-82
2022/10/27 10:52:38;;;;;;;4.93;1.35;;;30.70;66.80;;;;;;5034283;28;20014;-81
2022/10/27 10:55:07;;;;;;;4.13;1.38;;;30.70;69.80;;;;;;5016600;28;20491;-80
2022/10/27 10:57:41;;;;;;;11.82;8.80;;;31.40;67.90;;;;;;5036548;28;20033;-80
2022/10/27 11:00:15;;;;;;;28.00;19.75;;;31.10;66.10;;;;;;5019174;28;20080;-80
2022/10/27 11:02:49;;;;;;;4.88;2.05;;;31.30;67.60;;;;;;5019184;28;20025;-80
2022/10/27 11:05:22;;;;;;;2.90;1.40;;;31.70;68.60;;;;;;5019200;28;20026;-81
2022/10/27 11:07:57;;;;;;;6.03;1.48;;;32.20;65.60;;;;;;5013883;28;20036;-80
2022/10/27 11:10:42;;;;;;;3.30;1.30;;;32.60;64.50;;;;;;5020063;28;20116;-80
2022/10/27 11:13:46;;;;;;;;;;;;;;;;;;;;;
2022/10/27 11:16:25;;;;;;;3.78;1.27;;;32.00;64.70;;;;;;5037251;28;20551;-81
2022/10/27 11:19:22;;;;;;;2.92;1.13;;;31.50;64.10;;;;;;5019495;28;20610;-81
2022/10/27 11:22:03;;;;;;;3.15;1.40;;;31.90;64.50;;;;;;5025827;28;20029;-81
2022/10/27 11:24:48;;;;;;;4.53;1.13;;;31.50;64.80;;;;;;5018815;28;20048;-81
2022/10/27 11:27:19;;;;;;;3.13;1.52;;;31.40;65.30;;;;;;5016485;28;20026;-81
2022/10/27 11:30:05;;;;;;;2.95;1.30;;;31.80;63.70;;;;;;5030524;28;20084;-80
2022/10/27 11:32:47;;;;;;;3.70;1.48;;;31.70;64.10;;;;;;5018129;28;20116;-80
2022/10/27 11:35:20;;;;;;;1.05;0.80;;;31.90;63.90;;;;;;5018088;28;20017;-80
2022/10/27 11:38:11;;;;;;;4.03;0.93;;;31.80;62.30;;;;;;5018509;28;20456;-81
2022/10/27 11:41:15;;;;;;;4.72;1.20;;;31.80;62.30;;;;;;5019653;28;20029;-80
2022/10/27 11:44:04;;;;;;;3.65;1.10;;;32.00;63.10;;;;;;5018114;28;20026;-80
2022/10/27 11:46:47;;;;;;;3.33;1.27;;;31.80;62.90;;;;;;5036433;28;20021;-80
2022/10/27 11:49:24;;;;;;;4.35;1.10;;;31.70;61.00;;;;;;5018356;28;20037;-81
2022/10/27 11:52:11;;;;;;;2.35;1.02;;;31.10;62.60;;;;;;5033280;28;20060;-80
2022/10/27 11:54:37;;;;;;;4.47;1.42;;;31.20;63.30;;;;;;4998649;28;20028;-79
2022/10/27 11:57:33;;;;;;;3.83;1.45;;;31.10;63.70;;;;;;4998384;28;20018;-81
2022/10/27 12:00:28;;;;;;;2.80;1.50;;;30.70;65.70;;;;;;5016805;28;20026;-81
2022/10/27 12:03:24;;;;;;;2.70;1.33;;;30.80;63.80;;;;;;4998569;28;20026;-81
2022/10/27 12:06:32;;;;;;;2.53;1.20;;;30.40;66.00;;;;;;4998588;28;20032;-82
2022/10/27 12:09:29;;;;;;;6.25;1.33;;;30.20;64.00;;;;;;4999332;28;20109;-81
2022/10/27 12:12:22;;;;;;;5.00;1.50;;;29.60;66.80;;;;;;5014688;28;20033;-80
2022/10/27 12:15:01;;;;;;;3.13;1.50;;;29.20;67.40;;;;;;5015762;28;20030;-81
2022/10/27 12:17:52;;;;;;;5.05;1.83;;;28.80;66.50;;;;;;5013734;28;20090;-81
2022/10/27 12:20:44;;;;;;;3.70;1.98;;;28.60;67.30;;;;;;5019637;28;20025;-81
2022/10/27 12:23:35;;;;;;;2.75;1.88;;;28.00;68.90;;;;;;5024831;28;20371;-81
2022/10/27 12:26:25;;;;;;;3.17;1.65;;;27.70;69.30;;;;;;5016346;28;20501;-80
2022/10/27 12:28:54;;;;;;;65.95;50.15;;;27.10;72.00;;;;;;5018239;28;20506;-79
2022/10/27 12:31:24;;;;;;;24.33;12.90;;;26.90;72.70;;;;;;5015416;28;20041;-80
2022/10/27 12:33:55;;;;;;;;;;;26.60;72.50;;;;;;5035769;28;20037;-80
2022/10/27 12:36:39;;;;;;;;;;;26.60;73.60;;;;;;5036046;28;19912;-80
2022/10/27 12:39:41;;;;;;;3.40;2.00;;;26.40;74.60;;;;;;5018149;28;19913;-80
2022/10/27 12:42:39;;;;;;;7.32;1.83;;;26.30;74.40;;;;;;5017935;28;20074;-80
2022/10/27 12:45:24;;;;;;;4.28;2.05;;;26.10;76.10;;;;;;5017921;28;20036;-80
2022/10/27 12:48:01;;;;;;;3.95;2.42;;;25.70;76.70;;;;;;5036068;28;20032;-81
2022/10/27 12:50:36;;;;;;;5.70;2.35;;;25.40;76.80;;;;;;5022895;28;20056;-79
2022/10/27 12:53:20;;;;;;;4.95;2.20;;;25.30;77.50;;;;;;5029375;28;20036;-77
2022/10/27 12:56:03;;;;;;;5.78;2.30;;;25.00;79.80;;;;;;5037459;28;20017;-79
2022/10/27 12:58:33;;;;;;;5.63;1.98;;;24.80;79.70;;;;;;5055461;28;20025;-79
2022/10/27 13:01:26;;;;;;;6.57;2.20;;;24.90;79.80;;;;;;5020721;28;20044;-79
2022/10/27 13:04:15;;;;;;;4.18;1.88;;;24.90;81.60;;;;;;5018379;28;20148;-80
2022/10/27 13:06:58;;;;;;;5.47;2.58;;;25.00;81.40;;;;;;5018070;28;20026;-80
2022/10/27 13:09:42;;;;;;;5.47;2.38;;;24.80;80.10;;;;;;5017782;28;20025;-79
2022/10/27 13:12:26;;;;;;;8.48;2.38;;;24.50;81.00;;;;;;5016753;28;20021;-80
2022/10/27 13:15:08;;;;;;;3.70;1.85;;;24.10;82.90;;;;;;5017500;28;20037;-79
2022/10/27 13:17:43;;;;;;;4.22;2.08;;;24.30;83.10;;;;;;5021924;28;20060;-79
2022/10/27 13:20:46;;;;;;;8.75;2.13;;;24.20;82.90;;;;;;5006703;28;20598;-79